Time;durP1;ratioP1;P1;durP2;ratioP2;P2;SDS_P1;SDS_P2;PMS_P1;PMS_P2;Temp;Humidity;BMP_temperature;BMP_pressure;BME280_temperature;BME280_humidity;BME280_pressure;Samples;Min_cycle;Max_cycle;Signal;HPM_P1;HPM_P2
2022/06/27 00:00:53;;;;;;;4.70;2.17;;;23.80;77.60;;;;;;5015623;28;20053;-76
2022/06/27 00:03:19;;;;;;;5.55;2.10;;;23.80;77.60;;;;;;5015669;28;20038;-77
2022/06/27 00:05:44;;;;;;;4.88;2.13;;;23.80;78.00;;;;;;5015535;28;20049;-78
2022/06/27 00:08:10;;;;;;;6.03;2.40;;;23.80;78.10;;;;;;5015297;28;20493;-78
2022/06/27 00:10:35;;;;;;;4.22;2.00;;;23.80;78.40;;;;;;5015263;28;20026;-78
2022/06/27 00:13:01;;;;;;;3.70;2.30;;;23.80;78.60;;;;;;5015375;28;20467;-78
2022/06/27 00:15:27;;;;;;;6.30;2.40;;;23.80;78.90;;;;;;5015497;28;20022;-78
2022/06/27 00:17:52;;;;;;;4.78;2.47;;;23.70;78.70;;;;;;5015376;28;20045;-78
2022/06/27 00:20:18;;;;;;;7.05;2.35;;;23.70;78.70;;;;;;5015197;28;20097;-78
2022/06/27 00:22:44;;;;;;;4.93;2.58;;;23.70;78.70;;;;;;5015023;28;20021;-78
2022/06/27 00:25:10;;;;;;;3.88;2.35;;;23.70;78.80;;;;;;5015397;28;20029;-77
2022/06/27 00:27:36;;;;;;;4.70;2.70;;;23.70;78.90;;;;;;5015336;28;20368;-78
2022/06/27 00:30:04;;;;;;;5.50;2.45;;;23.70;79.00;;;;;;5013932;28;20526;-76
2022/06/27 00:32:29;;;;;;;4.53;2.35;;;23.70;79.10;;;;;;5015251;28;20022;-77
2022/06/27 00:34:55;;;;;;;7.63;2.35;;;23.70;79.00;;;;;;5016029;28;20026;-77
2022/06/27 00:37:20;;;;;;;4.63;2.20;;;23.70;79.10;;;;;;5018000;28;20472;-77
2022/06/27 00:39:46;;;;;;;4.20;2.22;;;23.70;79.10;;;;;;5017469;28;20030;-76
2022/06/27 00:42:12;;;;;;;6.35;2.72;;;23.60;79.20;;;;;;5014857;28;20061;-77
2022/06/27 00:44:40;;;;;;;5.85;2.65;;;23.70;79.30;;;;;;5014951;28;20025;-77
2022/06/27 00:47:08;;;;;;;7.00;2.33;;;23.60;79.10;;;;;;5014627;28;20024;-77
2022/06/27 00:49:34;;;;;;;4.47;2.13;;;23.60;79.10;;;;;;5014955;28;20072;-78
2022/06/27 00:52:02;;;;;;;3.33;1.77;;;23.60;79.00;;;;;;5014474;28;20032;-78
2022/06/27 00:54:28;;;;;;;4.95;2.25;;;23.60;79.10;;;;;;5014592;28;20104;-78
2022/06/27 00:56:54;;;;;;;5.20;2.10;;;23.60;79.00;;;;;;5014706;28;20468;-77
2022/06/27 00:59:20;;;;;;;5.57;2.35;;;23.60;79.00;;;;;;5014746;28;20030;-77
2022/06/27 01:01:45;;;;;;;5.32;2.30;;;23.60;79.20;;;;;;5014268;28;20026;-78
2022/06/27 01:04:11;;;;;;;5.30;2.45;;;23.60;79.30;;;;;;5014506;28;20030;-78
2022/06/27 01:06:37;;;;;;;4.38;2.13;;;23.50;79.30;;;;;;5014029;28;20017;-78
2022/06/27 01:09:03;;;;;;;4.88;1.85;;;23.50;79.40;;;;;;5014606;28;20468;-78
2022/06/27 01:11:29;;;;;;;9.73;2.50;;;23.50;79.30;;;;;;5014118;28;20026;-78
2022/06/27 01:13:55;;;;;;;5.05;2.22;;;23.50;79.30;;;;;;5014135;28;20030;-78
2022/06/27 01:16:21;;;;;;;3.70;2.20;;;23.50;79.20;;;;;;4996635;28;20483;-77
2022/06/27 01:18:47;;;;;;;6.40;2.58;;;23.50;79.30;;;;;;5014238;28;20026;-78
2022/06/27 01:21:25;;;;;;;3.67;2.13;;;23.50;79.40;;;;;;5013857;28;20092;-78
2022/06/27 01:23:52;;;;;;;4.97;2.10;;;23.50;79.70;;;;;;5014188;28;20060;-77
2022/06/27 01:26:19;;;;;;;9.30;2.63;;;23.40;79.50;;;;;;5014292;28;20072;-78
2022/06/27 01:28:45;;;;;;;3.90;2.22;;;23.40;79.60;;;;;;5013564;28;20022;-77
2022/06/27 01:31:14;;;;;;;5.63;2.50;;;23.40;79.80;;;;;;5013956;28;20037;-78
2022/06/27 01:33:40;;;;;;;4.10;2.47;;;23.40;79.90;;;;;;5014130;28;20046;-78
2022/06/27 01:38:51;;;;;;;5.00;2.47;;;23.40;79.90;;;;;;5014292;28;20100;-78
2022/06/27 01:41:17;;;;;;;4.45;2.28;;;23.40;80.10;;;;;;5014125;28;20033;-77
2022/06/27 01:43:45;;;;;;;4.00;2.25;;;23.30;80.20;;;;;;5013732;28;20062;-76
2022/06/27 01:46:11;;;;;;;3.78;2.53;;;23.30;80.50;;;;;;5016026;28;20022;-77
2022/06/27 01:48:38;;;;;;;4.75;2.53;;;23.30;80.50;;;;;;5016165;28;20032;-77
2022/06/27 01:51:04;;;;;;;4.70;2.65;;;23.30;80.60;;;;;;5013921;28;20164;-77
2022/06/27 01:53:29;;;;;;;4.80;2.40;;;23.30;80.70;;;;;;5012468;28;20076;-78
2022/06/27 01:55:55;;;;;;;5.60;2.45;;;23.20;80.70;;;;;;5013675;28;20029;-77
2022/06/27 01:58:21;;;;;;;3.85;2.30;;;23.20;80.60;;;;;;5013553;28;20033;-76
2022/06/27 02:00:47;;;;;;;4.05;2.15;;;23.20;80.70;;;;;;5013990;28;20026;-77
2022/06/27 02:03:13;;;;;;;3.65;2.00;;;23.20;80.70;;;;;;5013218;28;20084;-77
2022/06/27 02:05:39;;;;;;;3.72;2.00;;;23.20;80.70;;;;;;5013413;28;20026;-77
2022/06/27 02:08:05;;;;;;;4.22;2.08;;;23.20;80.70;;;;;;5013573;28;20030;-77
2022/06/27 02:10:31;;;;;;;3.47;2.05;;;23.20;80.80;;;;;;5013687;28;20030;-77
2022/06/27 02:12:56;;;;;;;4.72;2.13;;;23.10;81.00;;;;;;5014658;28;20084;-77
2022/06/27 02:15:22;;;;;;;4.38;2.50;;;23.10;81.00;;;;;;5013909;28;20122;-77
2022/06/27 02:17:48;;;;;;;6.00;2.47;;;23.10;81.00;;;;;;5013061;28;20470;-76
2022/06/27 02:20:14;;;;;;;4.57;2.33;;;23.10;80.80;;;;;;5013445;28;20100;-78
2022/06/27 02:22:40;;;;;;;4.90;2.35;;;23.10;81.00;;;;;;5013017;28;20045;-77
2022/06/27 02:25:06;;;;;;;4.38;2.28;;;23.10;81.20;;;;;;5013249;28;20026;-77
2022/06/27 02:27:33;;;;;;;3.25;2.20;;;23.10;81.20;;;;;;5013062;28;20033;-77
2022/06/27 02:29:59;;;;;;;3.50;1.90;;;23.10;81.20;;;;;;5013556;28;20022;-78
2022/06/27 02:32:26;;;;;;;5.05;2.17;;;23.00;81.10;;;;;;5012927;28;20026;-77
2022/06/27 02:34:55;;;;;;;3.58;2.22;;;23.10;81.30;;;;;;5013269;28;20542;-77
2022/06/27 02:37:21;;;;;;;5.15;2.45;;;23.10;81.40;;;;;;5013200;28;20069;-76
2022/06/27 02:39:48;;;;;;;5.15;2.70;;;23.00;81.40;;;;;;5013491;28;20552;-77
2022/06/27 02:42:17;;;;;;;4.63;2.63;;;23.00;81.40;;;;;;5016851;28;20486;-77
2022/06/27 02:44:46;;;;;;;4.40;2.30;;;23.00;81.50;;;;;;5015759;28;20022;-76
2022/06/27 02:47:13;;;;;;;4.80;2.50;;;23.00;81.40;;;;;;5015487;28;20014;-77
2022/06/27 02:49:39;;;;;;;5.03;2.75;;;22.90;81.10;;;;;;5015767;28;20546;-75
2022/06/27 02:52:30;;;;;;;4.10;2.72;;;22.90;81.40;;;;;;5015827;28;20053;-77
2022/06/27 02:55:34;;;;;;;4.05;2.22;;;22.90;81.70;;;;;;5015454;28;20033;-77
2022/06/27 02:58:07;;;;;;;8.57;2.53;;;22.90;81.50;;;;;;5015633;28;20030;-77
2022/06/27 03:00:35;;;;;;;4.95;2.80;;;22.90;81.60;;;;;;5015453;28;20064;-77
2022/06/27 03:03:03;;;;;;;5.18;3.20;;;22.90;81.30;;;;;;5015469;28;20386;-77
2022/06/27 03:05:29;;;;;;;3.75;2.58;;;22.90;81.50;;;;;;5015445;28;20026;-77
2022/06/27 03:07:54;;;;;;;5.10;2.42;;;22.90;81.70;;;;;;5015353;28;20068;-77
2022/06/27 03:10:21;;;;;;;9.30;3.17;;;22.90;81.80;;;;;;4997699;28;20057;-77
2022/06/27 03:12:46;;;;;;;5.65;3.08;;;22.80;81.60;;;;;;5015464;28;20041;-77
2022/06/27 03:15:12;;;;;;;4.13;2.20;;;22.80;81.60;;;;;;5014986;28;20017;-77
2022/06/27 03:17:38;;;;;;;4.47;1.90;;;22.90;81.70;;;;;;5015212;28;20018;-78
2022/06/27 03:20:04;;;;;;;3.30;2.22;;;22.90;81.50;;;;;;5015310;28;20026;-77
2022/06/27 03:22:30;;;;;;;4.55;2.38;;;22.80;81.60;;;;;;5015117;28;20049;-77
2022/06/27 03:24:55;;;;;;;5.75;2.63;;;22.80;81.90;;;;;;4997612;28;20502;-77
2022/06/27 03:27:21;;;;;;;9.35;2.55;;;22.70;81.80;;;;;;5015118;28;20080;-77
2022/06/27 03:29:46;;;;;;;5.85;3.00;;;22.70;82.00;;;;;;5015032;28;20021;-77
2022/06/27 03:32:12;;;;;;;4.25;2.40;;;22.70;82.00;;;;;;5016393;28;20493;-77
2022/06/27 03:34:37;;;;;;;5.55;2.45;;;22.80;82.10;;;;;;4998617;28;20538;-76
2022/06/27 03:37:03;;;;;;;6.15;2.83;;;22.70;82.20;;;;;;5015206;28;20029;-77
2022/06/27 03:39:29;;;;;;;4.50;2.70;;;22.70;82.40;;;;;;5015004;28;20037;-74
2022/06/27 03:41:54;;;;;;;4.25;2.40;;;22.70;82.40;;;;;;4977950;28;1063897;-74
2022/06/27 03:44:20;;;;;;;4.38;2.65;;;22.70;82.50;;;;;;5016074;28;20034;-76
2022/06/27 03:46:45;;;;;;;9.05;2.90;;;22.70;82.70;;;;;;5014417;28;20029;-77
2022/06/27 03:51:55;;;;;;;4.45;2.38;;;22.70;82.80;;;;;;5015322;28;20501;-76
2022/06/27 03:54:21;;;;;;;5.20;2.85;;;22.70;83.60;;;;;;5015863;28;20026;-76
2022/06/27 03:56:46;;;;;;;5.55;2.70;;;22.70;83.10;;;;;;5015694;28;20061;-76
2022/06/27 03:59:13;;;;;;;4.35;3.17;;;22.60;83.20;;;;;;5015743;28;20077;-76
2022/06/27 04:01:39;;;;;;;5.30;3.08;;;22.60;83.20;;;;;;5015311;28;20030;-75
2022/06/27 04:04:04;;;;;;;4.57;2.53;;;22.60;83.40;;;;;;5015810;28;20037;-77
2022/06/27 04:06:30;;;;;;;4.32;2.53;;;22.70;83.30;;;;;;5015408;28;20301;-76
2022/06/27 04:08:56;;;;;;;6.43;3.10;;;22.60;83.30;;;;;;5015505;28;20034;-77
2022/06/27 04:11:21;;;;;;;4.68;2.60;;;22.60;83.40;;;;;;5015586;28;20033;-76
2022/06/27 04:13:47;;;;;;;4.22;2.47;;;22.60;83.60;;;;;;5015649;28;20493;-77
2022/06/27 04:16:12;;;;;;;5.63;3.10;;;22.60;83.50;;;;;;5015546;28;20395;-77
2022/06/27 04:18:38;;;;;;;5.65;3.20;;;22.60;83.50;;;;;;5015356;28;20026;-77
2022/06/27 04:21:04;;;;;;;8.43;3.63;;;22.60;83.70;;;;;;5015141;28;20145;-75
2022/06/27 04:23:29;;;;;;;6.10;2.78;;;22.50;83.60;;;;;;5015220;28;20034;-77
2022/06/27 04:25:55;;;;;;;8.75;3.45;;;22.50;83.80;;;;;;5014061;28;20022;-77
2022/06/27 04:28:21;;;;;;;5.53;3.08;;;22.50;83.70;;;;;;5015083;28;20029;-77
2022/06/27 04:30:47;;;;;;;4.05;3.17;;;22.50;83.70;;;;;;5015333;28;20026;-77
2022/06/27 04:33:13;;;;;;;5.82;3.40;;;22.50;83.70;;;;;;5015196;28;20386;-77
2022/06/27 04:35:46;;;;;;;5.63;3.15;;;22.50;83.80;;;;;;5014866;28;20014;-77
2022/06/27 04:38:12;;;;;;;6.25;3.03;;;22.50;83.70;;;;;;5015144;28;20486;-77
2022/06/27 04:40:38;;;;;;;7.07;3.38;;;22.50;83.60;;;;;;5014817;28;20099;-77
2022/06/27 04:43:03;;;;;;;4.40;2.78;;;22.50;83.80;;;;;;5014381;28;20490;-77
2022/06/27 04:45:32;;;;;;;5.65;3.20;;;22.40;83.80;;;;;;5015072;28;20072;-77
2022/06/27 04:47:58;;;;;;;6.43;3.67;;;22.50;84.20;;;;;;5015069;28;20470;-77
2022/06/27 04:50:25;;;;;;;5.47;3.47;;;22.40;84.30;;;;;;5015301;28;20045;-77
2022/06/27 04:52:51;;;;;;;7.13;4.00;;;22.40;84.40;;;;;;5016039;28;20483;-77
2022/06/27 04:55:17;;;;;;;8.05;3.88;;;22.40;84.60;;;;;;5015203;28;20022;-77
2022/06/27 04:57:44;;;;;;;5.70;3.50;;;22.40;84.70;;;;;;5014373;28;20033;-77
2022/06/27 05:00:13;;;;;;;6.07;3.97;;;22.40;84.70;;;;;;5014808;28;20129;-76
2022/06/27 05:02:39;;;;;;;7.57;3.80;;;22.40;84.80;;;;;;5013584;28;20030;-77
2022/06/27 05:05:05;;;;;;;7.28;4.05;;;22.40;84.80;;;;;;5014597;28;20048;-76
2022/06/27 05:07:31;;;;;;;7.00;4.40;;;22.40;84.60;;;;;;5014157;28;20032;-77
2022/06/27 05:09:57;;;;;;;5.85;3.85;;;22.40;84.40;;;;;;5014379;28;20383;-76
2022/06/27 05:12:25;;;;;;;6.13;3.60;;;22.40;84.40;;;;;;5014614;28;20038;-77
2022/06/27 05:14:54;;;;;;;7.15;3.58;;;22.40;84.30;;;;;;5015224;28;20022;-77
2022/06/27 05:17:21;;;;;;;5.25;3.28;;;22.40;84.30;;;;;;5014419;28;20022;-77
2022/06/27 05:19:47;;;;;;;10.40;4.00;;;22.40;84.20;;;;;;5014836;28;20021;-76
2022/06/27 05:22:12;;;;;;;7.57;3.88;;;22.40;84.20;;;;;;5014085;28;20029;-76
2022/06/27 05:24:38;;;;;;;8.32;3.92;;;22.40;84.10;;;;;;5014334;28;20415;-77
2022/06/27 05:27:04;;;;;;;8.07;3.30;;;22.40;84.00;;;;;;5014190;28;20030;-77
2022/06/27 05:29:30;;;;;;;8.25;3.80;;;22.40;83.80;;;;;;5014953;28;20054;-77
2022/06/27 05:31:56;;;;;;;8.05;4.35;;;22.40;83.90;;;;;;5014531;28;20076;-74
2022/06/27 05:34:22;;;;;;;7.47;3.70;;;22.30;84.10;;;;;;4996875;28;20391;-77
2022/06/27 05:36:48;;;;;;;8.60;3.90;;;22.30;84.30;;;;;;5014401;28;20076;-77
2022/06/27 05:39:14;;;;;;;18.52;5.78;;;22.40;84.40;;;;;;5014075;28;20439;-76
2022/06/27 05:41:41;;;;;;;20.75;5.43;;;22.40;84.50;;;;;;5013525;28;20021;-77
2022/06/27 05:44:07;;;;;;;14.75;5.10;;;22.40;84.50;;;;;;5013734;28;20050;-76
2022/06/27 05:46:33;;;;;;;17.52;4.35;;;22.40;84.40;;;;;;5014052;28;20468;-77
2022/06/27 05:49:01;;;;;;;10.68;4.53;;;22.40;84.50;;;;;;5014213;28;20049;-77
2022/06/27 05:51:28;;;;;;;10.10;4.30;;;22.50;84.60;;;;;;5014719;28;20049;-76
2022/06/27 05:53:56;;;;;;;11.90;4.70;;;22.40;84.60;;;;;;5016640;28;20032;-73
2022/06/27 05:56:22;;;;;;;9.25;4.68;;;22.40;84.30;;;;;;5013478;28;20083;-77
2022/06/27 05:58:48;;;;;;;6.50;3.55;;;22.40;84.20;;;;;;5013519;28;20045;-76
2022/06/27 06:01:14;;;;;;;5.13;3.08;;;22.30;84.30;;;;;;4996029;28;20029;-75
2022/06/27 06:03:39;;;;;;;8.55;4.22;;;22.30;84.30;;;;;;5013351;28;20394;-76
2022/06/27 06:06:05;;;;;;;3.78;2.90;;;22.00;85.60;;;;;;5013647;28;20475;-74
2022/06/27 06:08:32;;;;;;;7.35;2.65;;;21.80;86.30;;;;;;5013418;28;20104;-73
2022/06/27 06:10:57;;;;;;;6.18;3.05;;;22.00;85.30;;;;;;5013460;28;20028;-77
2022/06/27 06:13:25;;;;;;;9.93;3.70;;;22.00;84.90;;;;;;5012659;28;20025;-77
2022/06/27 06:15:52;;;;;;;9.40;3.90;;;21.90;85.50;;;;;;5012217;28;20502;-77
2022/06/27 06:18:18;;;;;;;6.03;3.70;;;21.60;86.40;;;;;;5013164;28;20072;-77
2022/06/27 06:20:44;;;;;;;12.15;3.35;;;20.60;89.40;;;;;;4995380;28;20030;-77
2022/06/27 06:23:10;;;;;;;14.80;3.50;;;21.10;89.30;;;;;;5014479;28;20068;-76
2022/06/27 06:25:36;;;;;;;6.82;3.28;;;21.60;87.10;;;;;;5010624;28;20050;-77
2022/06/27 06:28:03;;;;;;;5.43;3.22;;;21.90;85.70;;;;;;5012980;28;20479;-75
2022/06/27 06:30:30;;;;;;;8.35;3.10;;;22.10;84.70;;;;;;5012782;28;20133;-77
2022/06/27 06:33:02;;;;;;;6.82;2.80;;;22.20;84.10;;;;;;5012960;28;20436;-76
2022/06/27 06:35:32;;;;;;;4.93;2.70;;;22.20;83.70;;;;;;4996112;28;20022;-77
2022/06/27 06:37:58;;;;;;;6.68;2.47;;;22.30;83.40;;;;;;5012389;28;20030;-76
2022/06/27 06:40:24;;;;;;;5.45;2.45;;;22.30;83.10;;;;;;5012236;28;20022;-76
2022/06/27 06:42:51;;;;;;;4.30;2.67;;;22.30;83.10;;;;;;4989407;28;20044;-77
2022/06/27 06:45:17;;;;;;;4.35;2.10;;;22.20;83.40;;;;;;5008836;28;20026;-76
2022/06/27 06:47:47;;;;;;;3.28;2.40;;;22.20;83.50;;;;;;5010976;28;20030;-76
2022/06/27 06:50:18;;;;;;;5.45;2.80;;;22.20;83.90;;;;;;5007329;28;20452;-78
2022/06/27 06:52:46;;;;;;;4.57;2.10;;;22.20;84.00;;;;;;5010091;28;20034;-77
2022/06/27 06:55:13;;;;;;;5.97;2.20;;;22.20;84.10;;;;;;5008696;28;20092;-73
2022/06/27 06:57:39;;;;;;;6.25;2.50;;;22.20;84.10;;;;;;5009531;28;20026;-73
2022/06/27 07:00:07;;;;;;;6.70;2.63;;;22.20;84.10;;;;;;5010784;28;20080;-74
2022/06/27 07:02:33;;;;;;;4.65;2.22;;;22.30;84.10;;;;;;5008369;28;20109;-73
2022/06/27 07:05:01;;;;;;;5.55;2.28;;;22.20;84.20;;;;;;5009391;28;20394;-73
2022/06/27 07:07:28;;;;;;;7.70;2.58;;;22.30;83.80;;;;;;5005604;28;20022;-73
2022/06/27 07:09:54;;;;;;;7.38;2.45;;;22.30;83.70;;;;;;5010153;28;20498;-74
2022/06/27 07:12:20;;;;;;;9.70;3.08;;;22.40;83.50;;;;;;5010017;28;20033;-73
2022/06/27 07:14:45;;;;;;;7.93;2.80;;;22.40;83.70;;;;;;5010439;28;20490;-74
2022/06/27 07:17:11;;;;;;;7.20;2.40;;;22.40;83.90;;;;;;5012314;28;20105;-74
2022/06/27 07:19:38;;;;;;;5.47;2.70;;;22.30;83.70;;;;;;5011547;28;20037;-74
2022/06/27 07:22:05;;;;;;;6.78;3.30;;;22.40;83.60;;;;;;5011661;28;20076;-74
2022/06/27 07:24:31;;;;;;;6.18;2.90;;;22.40;83.40;;;;;;5008743;28;20379;-74
2022/06/27 07:26:59;;;;;;;4.60;2.50;;;22.40;83.30;;;;;;5013299;28;20029;-74
2022/06/27 07:29:26;;;;;;;6.88;2.30;;;22.40;83.10;;;;;;5014037;28;20487;-74
2022/06/27 07:31:53;;;;;;;6.18;2.83;;;22.40;83.20;;;;;;4997529;28;20034;-73
2022/06/27 07:34:21;;;;;;;7.38;3.08;;;22.40;83.60;;;;;;4997210;28;20122;-74
2022/06/27 07:36:46;;;;;;;6.72;3.05;;;22.40;83.90;;;;;;5014488;28;20025;-75
2022/06/27 07:39:12;;;;;;;9.88;3.00;;;22.40;84.10;;;;;;5015087;28;20045;-74
2022/06/27 07:41:38;;;;;;;7.28;3.28;;;22.40;84.10;;;;;;5014990;28;20030;-74
2022/06/27 07:44:03;;;;;;;4.78;2.45;;;22.40;84.00;;;;;;5014511;28;20081;-74
2022/06/27 07:46:31;;;;;;;6.82;2.85;;;22.40;84.50;;;;;;5013626;28;20022;-74
2022/06/27 07:48:57;;;;;;;7.07;3.00;;;22.40;83.70;;;;;;5014748;28;20033;-74
2022/06/27 07:51:23;;;;;;;10.45;3.38;;;22.30;84.10;;;;;;5014675;28;20616;-74
2022/06/27 07:53:51;;;;;;;10.65;3.30;;;22.30;84.70;;;;;;5014154;28;20033;-73
2022/06/27 07:56:18;;;;;;;8.48;2.97;;;22.30;84.60;;;;;;5010397;28;20479;-73
2022/06/27 07:58:44;;;;;;;4.90;3.22;;;22.30;84.90;;;;;;5010548;28;20022;-73
2022/06/27 08:01:15;;;;;;;6.20;3.25;;;22.30;85.10;;;;;;5007791;28;20498;-72
2022/06/27 08:03:44;;;;;;;9.93;3.55;;;22.30;85.40;;;;;;5010400;28;20034;-75
2022/06/27 08:06:18;;;;;;;9.43;3.78;;;22.30;85.80;;;;;;5011673;28;20496;-76
2022/06/27 08:08:55;;;;;;;5.82;3.17;;;22.20;85.60;;;;;;5006963;28;20477;-75
2022/06/27 08:11:27;;;;;;;6.95;3.17;;;22.30;85.20;;;;;;5012025;28;20026;-76
2022/06/27 08:13:55;;;;;;;8.98;3.35;;;22.30;85.20;;;;;;5012929;28;20030;-76
2022/06/27 08:16:24;;;;;;;9.57;2.95;;;22.40;84.70;;;;;;5013289;28;20553;-76
2022/06/27 08:18:52;;;;;;;7.72;2.92;;;22.40;84.40;;;;;;4998287;28;20018;-75
2022/06/27 08:21:20;;;;;;;7.50;3.60;;;22.40;84.20;;;;;;5010889;28;20419;-75
2022/06/27 08:23:48;;;;;;;7.88;3.75;;;22.50;84.00;;;;;;5010622;28;20491;-76
2022/06/27 08:26:14;;;;;;;6.10;2.75;;;22.50;83.80;;;;;;5012521;28;20486;-75
2022/06/27 08:28:42;;;;;;;10.45;3.17;;;22.50;83.70;;;;;;5014493;28;20033;-76
2022/06/27 08:31:10;;;;;;;9.60;3.13;;;22.50;83.30;;;;;;5013137;28;20022;-75
2022/06/27 08:33:37;;;;;;;9.23;2.80;;;22.50;83.40;;;;;;5012352;28;20360;-75
2022/06/27 08:36:04;;;;;;;6.75;2.90;;;22.50;83.30;;;;;;5012196;28;20029;-73
2022/06/27 08:38:32;;;;;;;5.47;2.83;;;22.50;83.60;;;;;;5011548;28;20152;-75
2022/06/27 08:40:58;;;;;;;8.43;3.35;;;22.40;83.90;;;;;;5009545;28;20595;-76
2022/06/27 08:43:26;;;;;;;5.95;2.70;;;22.50;84.50;;;;;;5004620;28;20038;-76
2022/06/27 08:45:52;;;;;;;6.72;3.20;;;22.50;85.30;;;;;;5011448;28;20029;-76
2022/06/27 08:48:19;;;;;;;7.20;3.50;;;22.50;84.70;;;;;;5013352;28;20036;-76
2022/06/27 08:50:46;;;;;;;8.23;3.40;;;22.50;85.00;;;;;;5010698;28;20049;-76
2022/06/27 08:53:13;;;;;;;8.43;3.65;;;22.50;85.80;;;;;;5012635;28;20076;-76
2022/06/27 08:55:46;;;;;;;8.98;3.88;;;22.50;85.90;;;;;;5012467;28;20026;-76
2022/06/27 08:58:13;;;;;;;8.82;3.35;;;22.50;85.60;;;;;;5012706;28;20501;-76
2022/06/27 09:00:45;;;;;;;9.75;3.45;;;22.50;85.30;;;;;;5012175;28;20054;-76
2022/06/27 09:03:18;;;;;;;9.80;3.50;;;22.50;85.40;;;;;;5012694;28;20076;-76
2022/06/27 09:05:57;;;;;;;9.30;4.00;;;22.60;85.30;;;;;;5012487;28;20029;-75
2022/06/27 09:08:24;;;;;;;12.15;3.25;;;22.50;85.40;;;;;;5012671;28;20126;-75
2022/06/27 09:10:50;;;;;;;6.22;3.53;;;22.60;85.60;;;;;;5004304;28;20214;-75
2022/06/27 09:13:17;;;;;;;10.55;3.67;;;22.60;85.90;;;;;;5011262;28;20100;-75
2022/06/27 09:15:46;;;;;;;9.80;3.47;;;22.60;86.10;;;;;;5012048;28;20022;-75
2022/06/27 09:18:14;;;;;;;6.93;3.30;;;22.50;86.70;;;;;;5009484;28;20029;-74
2022/06/27 09:21:09;;;;;;;6.50;2.80;;;22.50;87.20;;;;;;5009469;28;20095;-76
2022/06/27 09:23:50;;;;;;;6.25;2.35;;;22.50;86.10;;;;;;5011517;28;20495;-76
2022/06/27 09:26:22;;;;;;;6.32;2.35;;;22.50;85.30;;;;;;5012598;28;20439;-76
2022/06/27 09:29:12;;;;;;;5.25;2.33;;;22.50;85.00;;;;;;5012153;28;20112;-75
2022/06/27 09:31:43;;;;;;;5.22;2.17;;;22.50;85.00;;;;;;5011361;28;20014;-75
2022/06/27 09:34:16;;;;;;;4.57;2.22;;;22.60;84.90;;;;;;5011119;28;20037;-75
2022/06/27 09:36:54;;;;;;;5.72;2.78;;;22.50;84.80;;;;;;5007425;28;20018;-75
2022/06/27 09:39:35;;;;;;;6.47;2.63;;;22.50;84.80;;;;;;5012618;28;20117;-75
2022/06/27 09:42:03;;;;;;;4.47;2.05;;;22.50;84.70;;;;;;5009281;28;20442;-75
2022/06/27 09:44:35;;;;;;;6.60;2.47;;;22.60;84.80;;;;;;5011755;28;20057;-74
2022/06/27 09:47:30;;;;;;;7.80;2.88;;;22.50;84.80;;;;;;5002420;28;20460;-75
2022/06/27 09:49:59;;;;;;;7.32;2.33;;;22.60;84.90;;;;;;4996993;28;20034;-75
2022/06/27 09:52:26;;;;;;;7.43;2.25;;;22.60;84.70;;;;;;5008747;28;20029;-74
2022/06/27 09:54:54;;;;;;;5.20;2.63;;;22.60;84.70;;;;;;5005891;28;20022;-75
2022/06/27 09:57:21;;;;;;;8.45;2.67;;;22.60;84.70;;;;;;5023512;28;20079;-76
2022/06/27 09:59:48;;;;;;;9.60;3.45;;;22.60;84.70;;;;;;5011731;28;20121;-75
2022/06/27 10:02:16;;;;;;;9.32;3.30;;;22.60;84.70;;;;;;5009716;28;20034;-76
2022/06/27 10:04:49;;;;;;;8.82;3.28;;;22.70;85.00;;;;;;5010576;28;20017;-75
2022/06/27 10:07:17;;;;;;;9.10;3.50;;;22.70;85.00;;;;;;5011095;28;20081;-75
2022/06/27 10:09:43;;;;;;;6.80;3.22;;;22.60;85.10;;;;;;5010641;28;20080;-75
2022/06/27 10:12:22;;;;;;;8.05;4.00;;;22.60;85.20;;;;;;5010751;28;20037;-76
2022/06/27 10:15:10;;;;;;;9.23;4.22;;;22.70;85.90;;;;;;5008980;28;20426;-76
2022/06/27 10:17:45;;;;;;;6.55;3.33;;;22.70;86.20;;;;;;5008069;28;20024;-74
2022/06/27 10:20:27;;;;;;;9.07;3.50;;;22.70;85.90;;;;;;4998856;28;20037;-75
2022/06/27 10:23:11;;;;;;;10.00;3.17;;;22.60;85.40;;;;;;5008774;28;20614;-76
2022/06/27 10:25:46;;;;;;;9.27;3.45;;;22.60;85.40;;;;;;5006793;28;20033;-76
2022/06/27 10:28:12;;;;;;;11.75;4.00;;;22.60;85.20;;;;;;5009441;28;20026;-76
2022/06/27 10:30:46;;;;;;;10.95;3.42;;;22.70;85.30;;;;;;5010775;28;20540;-76
2022/06/27 10:33:18;;;;;;;7.90;3.58;;;22.70;85.60;;;;;;4998667;28;20021;-76
2022/06/27 10:35:59;;;;;;;12.60;3.95;;;22.70;85.90;;;;;;5011496;28;20114;-76
2022/06/27 10:38:39;;;;;;;10.50;3.60;;;22.70;86.20;;;;;;5003632;28;20069;-77
2022/06/27 10:41:31;;;;;;;7.10;3.38;;;22.70;86.20;;;;;;5017439;28;20036;-75
2022/06/27 10:43:59;;;;;;;9.85;4.38;;;22.70;85.40;;;;;;4995541;28;20133;-76
2022/06/27 10:46:24;;;;;;;11.02;5.43;;;22.70;87.00;;;;;;5011303;28;20072;-76
2022/06/27 10:48:58;;;;;;;11.27;4.40;;;22.80;89.80;;;;;;5011728;28;20105;-76
2022/06/27 10:51:29;;;;;;;9.40;3.70;;;22.80;87.80;;;;;;5010373;28;20553;-76
2022/06/27 10:54:04;;;;;;;7.18;3.63;;;22.80;86.50;;;;;;5010740;28;20044;-75
2022/06/27 10:56:31;;;;;;;8.07;3.60;;;22.70;88.80;;;;;;5011633;28;20030;-77
2022/06/27 10:59:06;;;;;;;10.93;3.80;;;22.80;87.90;;;;;;4992275;28;20017;-77
2022/06/27 11:01:32;;;;;;;7.80;3.38;;;22.80;88.00;;;;;;5007039;28;20033;-78
2022/06/27 11:03:58;;;;;;;5.63;2.92;;;22.80;88.10;;;;;;5006737;28;20121;-76
2022/06/27 11:06:25;;;;;;;7.25;2.95;;;22.80;88.30;;;;;;5004379;28;20494;-76
2022/06/27 11:08:54;;;;;;;7.55;2.70;;;22.80;88.40;;;;;;5009992;28;20771;-76
2022/06/27 11:11:22;;;;;;;8.73;3.08;;;22.80;89.00;;;;;;5015290;28;20026;-76
2022/06/27 11:13:54;;;;;;;5.03;2.80;;;22.80;88.90;;;;;;5016423;28;20548;-76
2022/06/27 11:16:25;;;;;;;9.15;2.75;;;22.80;89.10;;;;;;5012119;28;20053;-76
2022/06/27 11:18:59;;;;;;;10.80;3.38;;;22.80;89.30;;;;;;5019572;28;20041;-77
2022/06/27 11:21:34;;;;;;;9.55;3.20;;;22.80;89.40;;;;;;5012534;28;20026;-76
2022/06/27 11:24:03;;;;;;;10.15;4.15;;;22.80;89.60;;;;;;4984571;28;20108;-76
2022/06/27 11:26:34;;;;;;;8.10;4.05;;;22.90;89.90;;;;;;5013039;28;20022;-71
2022/06/27 11:32:13;;;;;;;9.93;3.97;;;22.90;89.40;;;;;;5013878;28;20180;-76
2022/06/27 11:34:47;;;;;;;7.78;3.10;;;23.00;89.70;;;;;;5010731;28;20029;-76
2022/06/27 11:37:17;;;;;;;11.48;3.20;;;22.90;89.30;;;;;;5009156;28;20033;-76
2022/06/27 11:40:03;;;;;;;7.97;3.28;;;22.90;89.80;;;;;;5012812;28;20466;-77
2022/06/27 11:42:32;;;;;;;7.60;2.30;;;22.90;89.70;;;;;;5012920;28;20030;-76
2022/06/27 11:45:02;;;;;;;10.55;2.67;;;22.90;88.50;;;;;;5013566;28;20037;-77
2022/06/27 11:47:28;;;;;;;9.60;1.98;;;22.90;88.00;;;;;;5013593;28;20025;-77
2022/06/27 11:50:06;;;;;;;6.38;1.85;;;22.90;86.70;;;;;;5003574;28;20037;-77
2022/06/27 11:52:43;;;;;;;6.03;1.90;;;22.70;86.80;;;;;;5013087;28;20048;-76
2022/06/27 11:55:24;;;;;;;5.68;1.83;;;22.70;86.70;;;;;;5013694;28;20367;-77
2022/06/27 11:57:56;;;;;;;13.93;2.13;;;22.70;86.80;;;;;;5014179;28;20089;-74
2022/06/27 12:00:27;;;;;;;4.97;1.67;;;22.70;87.10;;;;;;5013257;28;20040;-74
2022/06/27 12:03:04;;;;;;;4.90;1.80;;;22.80;87.00;;;;;;5010154;28;20070;-73
2022/06/27 12:05:30;;;;;;;7.82;1.98;;;22.90;86.90;;;;;;4997929;28;20036;-74
2022/06/27 12:08:01;;;;;;;10.20;1.83;;;22.90;86.80;;;;;;5011269;28;20026;-74
2022/06/27 12:10:36;;;;;;;3.13;1.60;;;22.90;86.70;;;;;;5013313;28;20022;-73
2022/06/27 12:13:06;;;;;;;4.93;1.70;;;22.90;86.80;;;;;;5011903;28;20488;-73
2022/06/27 12:15:33;;;;;;;5.50;1.80;;;22.90;86.70;;;;;;5011482;28;20048;-75
2022/06/27 12:18:00;;;;;;;5.07;1.40;;;22.90;86.80;;;;;;4989003;28;20034;-74
2022/06/27 12:20:28;;;;;;;3.50;1.30;;;22.80;86.50;;;;;;5012570;28;20536;-74
2022/06/27 12:22:54;;;;;;;5.00;1.40;;;22.80;86.30;;;;;;5009739;28;20037;-74
2022/06/27 12:25:21;;;;;;;5.82;1.17;;;22.80;85.90;;;;;;5018184;28;20479;-74
2022/06/27 12:27:48;;;;;;;4.15;1.40;;;22.90;86.00;;;;;;5012315;28;20129;-75
2022/06/27 12:30:14;;;;;;;5.55;1.48;;;22.80;85.80;;;;;;5012668;28;20030;-75
2022/06/27 12:32:40;;;;;;;8.32;1.83;;;22.80;85.70;;;;;;5009977;28;20037;-74
2022/06/27 12:35:06;;;;;;;4.85;1.42;;;22.80;85.90;;;;;;5010781;28;20073;-74
2022/06/27 12:37:36;;;;;;;4.25;1.30;;;22.90;85.50;;;;;;5008705;28;20093;-74
2022/06/27 12:40:03;;;;;;;7.03;1.23;;;22.80;85.70;;;;;;5011076;28;20034;-76
2022/06/27 12:42:29;;;;;;;4.13;0.85;;;22.80;85.40;;;;;;5012784;28;20097;-75
2022/06/27 12:44:54;;;;;;;3.40;0.95;;;22.80;85.30;;;;;;5010806;28;20432;-75
2022/06/27 12:47:20;;;;;;;4.88;0.85;;;22.60;85.60;;;;;;5005732;28;20490;-75
2022/06/27 12:49:45;;;;;;;4.32;1.30;;;22.60;85.80;;;;;;5009471;28;20057;-75
2022/06/27 12:52:11;;;;;;;2.38;0.95;;;22.60;85.10;;;;;;5004800;28;20456;-75
2022/06/27 12:54:37;;;;;;;2.15;0.85;;;22.40;85.10;;;;;;5005924;28;20128;-75
2022/06/27 12:57:06;;;;;;;2.63;0.68;;;22.40;83.10;;;;;;4989626;28;20026;-76
2022/06/27 12:59:33;;;;;;;2.08;0.63;;;22.50;83.40;;;;;;5006009;28;20046;-76